This is the latest recevied weather packets stored in our database for station/object OM5AST-13. If no packets are shown the sender has not sent any weather packets the latest 1 day(s).
| Time | Temp. | Humidity | Pressure | Rain* | Wind** | Luminosity | Snow |
|---|---|---|---|---|---|---|---|
| 1777976635 | 25° C | 34% | - | 0 mm | 0 m/s | 0 W/m² | - |
| 1777975435 | 23.89° C | 38% | - | 0 mm | 0 m/s | 0 W/m² | - |
| 1777974235 | 22.78° C | 40% | - | 0 mm | 0 m/s | 0 W/m² | - |
| 1777973035 | 21.67° C | 43% | - | 0 mm | 0 m/s | 0 W/m² | - |
| 1777971835 | 21.67° C | 43% | - | 0 mm | 0 m/s | 0 W/m² | - |
| 1777970635 | 21.67° C | 43% | - | 0 mm | 0 m/s | 0 W/m² | - |
| 1777969435 | 21.11° C | 44% | - | 0 mm | 0 m/s | 0 W/m² | - |
| 1777968235 | 20.56° C | 45% | - | 0 mm | 0 m/s | 0 W/m² | - |
| 1777967035 | 20° C | 47% | - | 0 mm | 0 m/s | 0 W/m² | - |
| 1777965835 | 18.89° C | 48% | - | 0 mm | 0 m/s | 0 W/m² | - |
| 1777964635 | 18.33° C | 51% | - | 0 mm | 0 m/s | 0 W/m² | - |
| 1777963435 | 17.22° C | 51% | - | 0 mm | 0 m/s | 0 W/m² | - |
| 1777962236 | 16.11° C | 53% | - | 0 mm | 0 m/s | 0 W/m² | - |
| 1777961036 | 15.56° C | 52% | - | 0 mm | 0 m/s | 0 W/m² | - |
| 1777959836 | 15° C | 52% | - | 0 mm | 0 m/s | 0 W/m² | - |
| 1777958635 | 15° C | 51% | - | 0 mm | 0 m/s | 0 W/m² | - |
| 1777957435 | 14.44° C | 51% | - | 0 mm | 0 m/s | 0 W/m² | - |
| 1777956235 | 14.44° C | 51% | - | 0 mm | 0 m/s | 0 W/m² | - |
| 1777955035 | 13.89° C | 52% | - | 0 mm | 0 m/s | 0 W/m² | - |
| 1777953835 | 13.89° C | 52% | - | 0 mm | 0 m/s | 0 W/m² | - |
| 1777952635 | 13.33° C | 52% | - | 0 mm | 0 m/s | 0 W/m² | - |
| 1777951435 | 13.89° C | 50% | - | 0 mm | 0 m/s | 0 W/m² | - |
| 1777950235 | 13.89° C | 49% | - | 0 mm | 0 m/s | 0 W/m² | - |
* Rain latest hour (hover to see other rain measurements)
** Current wind speed in m/s (hover to see current wind gust speed)